createdAt,value
2023-07-12T00:01:02.444Z,4.55
2023-07-12T00:03:31.846Z,5.18
2023-07-12T00:05:59.816Z,4.57
2023-07-12T00:08:33.107Z,4.97
2023-07-12T00:11:01.092Z,4.78
2023-07-12T00:13:28.949Z,4.82
2023-07-12T00:15:57.586Z,5.00
2023-07-12T00:18:28.472Z,5.18
2023-07-12T00:20:56.493Z,5.05
2023-07-12T00:23:24.433Z,5.10
2023-07-12T00:25:53.858Z,4.85
2023-07-12T00:28:24.304Z,6.13
2023-07-12T00:33:22.362Z,5.25
2023-07-12T00:35:51.499Z,4.80
2023-07-12T00:38:21.671Z,4.45
2023-07-12T00:41:07.829Z,4.40
2023-07-12T00:43:40.097Z,5.10
2023-07-12T00:46:18.897Z,4.80
2023-07-12T00:48:48.491Z,4.82
2023-07-12T00:51:34.896Z,4.68
2023-07-12T00:54:03.252Z,4.93
2023-07-12T00:56:32.654Z,4.50
2023-07-12T00:59:07.000Z,5.10
2023-07-12T01:01:37.048Z,4.82
2023-07-12T01:04:05.907Z,4.82
2023-07-12T01:06:33.974Z,4.95
2023-07-12T01:09:10.954Z,4.70
2023-07-12T01:11:41.557Z,4.95
2023-07-12T01:14:12.034Z,5.18
2023-07-12T01:19:08.479Z,4.78
2023-07-12T01:21:39.770Z,4.65
2023-07-12T01:24:07.990Z,4.53
2023-07-12T01:26:38.280Z,5.00
2023-07-12T01:29:08.282Z,5.07
2023-07-12T01:31:37.033Z,4.75
2023-07-12T01:34:05.304Z,4.72
2023-07-12T01:36:34.235Z,5.30
2023-07-12T01:39:05.761Z,5.50
2023-07-12T01:41:34.979Z,4.95
2023-07-12T01:44:02.981Z,4.57
2023-07-12T01:46:30.972Z,4.63
2023-07-12T01:48:59.736Z,4.70
2023-07-12T01:51:28.604Z,4.70
2023-07-12T01:53:56.585Z,5.50
2023-07-12T01:56:25.978Z,4.80
2023-07-12T01:58:53.874Z,4.93
2023-07-12T02:01:22.052Z,4.68
2023-07-12T02:03:50.225Z,5.20
2023-07-12T02:06:18.576Z,5.05
2023-07-12T02:08:47.095Z,4.90
2023-07-12T02:11:15.300Z,5.55
2023-07-12T02:13:44.616Z,5.65
2023-07-12T02:16:12.656Z,5.47
2023-07-12T02:18:40.625Z,5.50
2023-07-12T02:21:08.697Z,5.20
2023-07-12T02:23:36.896Z,5.03
2023-07-12T02:26:05.182Z,5.82
2023-07-12T02:28:33.109Z,5.00
2023-07-12T02:33:54.617Z,4.88
2023-07-12T02:36:22.499Z,5.53
2023-07-12T02:38:50.447Z,5.15
2023-07-12T02:41:19.338Z,5.90
2023-07-12T02:43:48.577Z,4.80
2023-07-12T02:46:16.939Z,6.28
2023-07-12T02:48:45.894Z,5.80
2023-07-12T02:51:15.191Z,5.63
2023-07-12T02:53:43.203Z,5.07
2023-07-12T02:56:11.176Z,6.10
2023-07-12T02:58:39.247Z,5.47
2023-07-12T03:01:08.527Z,5.60
2023-07-12T03:03:36.955Z,6.00
2023-07-12T03:06:05.978Z,5.53
2023-07-12T03:08:35.329Z,5.78
2023-07-12T03:11:04.197Z,5.60
2023-07-12T03:13:32.696Z,5.20
2023-07-12T03:16:00.665Z,5.30
2023-07-12T03:18:28.771Z,5.00
2023-07-12T03:21:00.609Z,6.03
2023-07-12T03:23:28.546Z,5.57
2023-07-12T03:25:58.023Z,5.70
2023-07-12T03:28:26.489Z,5.07
2023-07-12T03:31:02.073Z,6.13
2023-07-12T03:33:30.964Z,5.68
2023-07-12T03:35:59.111Z,5.93
2023-07-12T03:38:27.798Z,6.32
2023-07-12T03:40:58.651Z,5.05
2023-07-12T03:43:27.253Z,5.38
2023-07-12T03:45:55.764Z,5.40
2023-07-12T03:48:24.570Z,5.22
2023-07-12T03:50:54.125Z,4.68
2023-07-12T03:53:22.068Z,5.38
2023-07-12T03:55:50.309Z,4.78
2023-07-12T03:58:21.777Z,4.60
2023-07-12T04:00:50.941Z,4.80
2023-07-12T04:03:20.008Z,5.05
2023-07-12T04:05:52.351Z,4.40
2023-07-12T04:08:21.505Z,4.55
2023-07-12T04:10:53.145Z,4.25
2023-07-12T04:13:23.771Z,4.43
2023-07-12T04:15:55.911Z,3.97
2023-07-12T04:18:24.685Z,4.35
2023-07-12T04:20:53.581Z,4.55
2023-07-12T04:23:21.628Z,4.00
2023-07-12T04:25:49.944Z,4.00
2023-07-12T04:28:17.941Z,4.10
2023-07-12T04:30:47.417Z,4.53
2023-07-12T04:33:16.250Z,4.07
2023-07-12T04:35:44.136Z,4.30
2023-07-12T04:38:12.070Z,3.78
2023-07-12T04:40:40.026Z,3.58
2023-07-12T04:43:07.961Z,3.83
2023-07-12T04:45:36.031Z,3.92
2023-07-12T04:48:05.641Z,4.03
2023-07-12T04:50:35.610Z,3.40
2023-07-12T04:53:04.194Z,3.88
2023-07-12T04:55:32.352Z,3.42
2023-07-12T04:58:00.330Z,3.80
2023-07-12T05:00:28.464Z,3.63
2023-07-12T05:02:56.578Z,4.32
2023-07-12T05:05:25.894Z,3.05
2023-07-12T05:07:54.073Z,3.58
2023-07-12T05:10:22.131Z,3.40
2023-07-12T05:12:52.664Z,3.55
2023-07-12T05:17:49.534Z,3.75
2023-07-12T05:20:18.105Z,3.83
2023-07-12T05:22:48.649Z,3.83
2023-07-12T05:27:44.397Z,3.35
2023-07-12T05:30:13.365Z,3.53
2023-07-12T05:32:41.957Z,3.88
2023-07-12T05:35:10.339Z,3.72
2023-07-12T05:37:38.290Z,3.38
2023-07-12T05:40:11.200Z,3.83
2023-07-12T05:42:42.026Z,3.58
2023-07-12T05:45:11.523Z,3.28
2023-07-12T05:47:39.991Z,3.42
2023-07-12T05:50:12.420Z,3.30
2023-07-12T05:52:40.583Z,3.20
2023-07-12T05:55:12.403Z,3.60
2023-07-12T05:57:40.621Z,3.35
2023-07-12T06:00:11.671Z,3.70
2023-07-12T06:02:40.178Z,3.53
2023-07-12T06:05:09.134Z,3.65
2023-07-12T06:07:37.207Z,3.45
2023-07-12T06:10:05.545Z,3.30
2023-07-12T06:12:35.188Z,3.55
2023-07-12T06:15:04.189Z,3.15
2023-07-12T06:17:32.524Z,3.00
2023-07-12T06:20:00.836Z,3.38
2023-07-12T06:22:29.005Z,3.00
2023-07-12T06:24:57.718Z,3.15
2023-07-12T06:27:25.654Z,3.05
2023-07-12T06:29:55.097Z,3.25
2023-07-12T06:32:23.102Z,2.70
2023-07-12T06:34:51.136Z,2.83
2023-07-12T06:37:19.174Z,2.65
2023-07-12T06:39:47.386Z,2.63
2023-07-12T06:42:15.368Z,2.50
2023-07-12T06:44:43.244Z,3.00
2023-07-12T06:47:12.596Z,2.75
2023-07-12T06:49:40.515Z,2.90
2023-07-12T06:52:11.304Z,2.50
2023-07-12T06:54:39.562Z,2.42
2023-07-12T06:57:08.142Z,2.83
2023-07-12T06:59:36.113Z,2.90
2023-07-12T07:02:04.646Z,2.90
2023-07-12T07:04:34.423Z,2.30
2023-07-12T07:07:02.428Z,2.40
2023-07-12T07:09:30.514Z,2.53
2023-07-12T07:11:58.563Z,2.88
2023-07-12T07:14:26.528Z,2.53
2023-07-12T07:16:54.505Z,2.50
2023-07-12T07:19:22.539Z,2.60
2023-07-12T07:21:52.394Z,2.63
2023-07-12T07:24:20.373Z,2.53
2023-07-12T07:26:48.381Z,2.50
2023-07-12T07:29:16.443Z,3.72
2023-07-12T07:31:44.877Z,2.55
2023-07-12T07:34:12.914Z,2.83
2023-07-12T07:36:40.953Z,2.72
2023-07-12T07:39:10.519Z,2.85
2023-07-12T07:41:38.765Z,2.77
2023-07-12T07:44:06.657Z,3.05
2023-07-12T07:46:34.651Z,2.58
2023-07-12T07:49:02.692Z,2.55
2023-07-12T07:51:30.604Z,2.50
2023-07-12T07:53:58.568Z,2.47
2023-07-12T07:56:28.266Z,2.53
2023-07-12T07:58:56.296Z,2.42
2023-07-12T08:01:24.277Z,2.47
2023-07-12T08:03:52.332Z,2.70
2023-07-12T08:06:20.917Z,2.58
2023-07-12T08:08:48.855Z,2.45
2023-07-12T08:11:17.192Z,2.20
2023-07-12T08:13:46.550Z,2.80
2023-07-12T08:16:15.365Z,2.22
2023-07-12T08:18:43.726Z,2.47
2023-07-12T08:21:12.127Z,3.10
2023-07-12T08:23:40.175Z,2.92
2023-07-12T08:26:08.091Z,2.63
2023-07-12T08:28:35.954Z,2.67
2023-07-12T08:31:05.613Z,2.60
2023-07-12T08:33:33.659Z,2.72
2023-07-12T08:36:01.572Z,2.70
2023-07-12T08:38:33.068Z,2.40
2023-07-12T08:41:02.617Z,2.58
2023-07-12T08:43:34.539Z,2.90
2023-07-12T08:46:08.848Z,3.00
2023-07-12T08:48:38.236Z,2.60
2023-07-12T08:51:14.049Z,2.72
2023-07-12T08:53:43.482Z,2.58
2023-07-12T08:56:15.458Z,2.78
2023-07-12T08:58:47.100Z,2.80
2023-07-12T09:01:21.737Z,2.63
2023-07-12T09:03:49.731Z,2.47
2023-07-12T09:06:18.145Z,2.83
2023-07-12T09:08:50.421Z,2.55
2023-07-12T09:11:21.180Z,2.65
2023-07-12T09:13:51.264Z,2.50
2023-07-12T09:16:26.521Z,2.50
2023-07-12T09:19:00.178Z,2.72
2023-07-12T09:21:32.357Z,2.58
2023-07-12T09:24:04.871Z,2.83
2023-07-12T09:26:34.581Z,2.33
2023-07-12T09:29:09.426Z,3.07
2023-07-12T09:31:42.979Z,2.60
2023-07-12T09:34:19.397Z,2.17
2023-07-12T09:36:47.386Z,2.70
2023-07-12T09:39:15.354Z,2.70
2023-07-12T09:41:51.484Z,2.50
2023-07-12T09:44:20.183Z,2.60
2023-07-12T09:46:55.363Z,2.75
2023-07-12T09:49:25.891Z,2.83
2023-07-12T09:52:02.916Z,2.60
2023-07-12T09:54:37.848Z,2.30
2023-07-12T09:57:13.752Z,2.58
2023-07-12T09:59:55.690Z,2.45
2023-07-12T10:02:43.455Z,2.97
2023-07-12T10:05:14.841Z,3.35
2023-07-12T10:07:55.307Z,2.70
2023-07-12T10:13:08.171Z,2.38
2023-07-12T10:15:39.856Z,2.97
2023-07-12T10:18:17.973Z,3.05
2023-07-12T10:20:47.421Z,3.08
2023-07-12T10:23:15.812Z,2.28
2023-07-12T10:25:47.834Z,2.50
2023-07-12T10:28:25.011Z,2.28
2023-07-12T10:30:54.438Z,2.90
2023-07-12T10:33:29.241Z,2.40
2023-07-12T10:35:58.903Z,3.00
2023-07-12T10:38:27.081Z,2.70
2023-07-12T10:41:01.441Z,2.35
2023-07-12T10:43:34.060Z,2.70
2023-07-12T10:46:05.830Z,2.42
2023-07-12T10:48:35.655Z,2.40
2023-07-12T10:51:26.979Z,2.40
2023-07-12T10:53:57.636Z,2.67
2023-07-12T10:56:28.811Z,2.60
2023-07-12T10:58:59.420Z,3.20
2023-07-12T11:01:53.966Z,3.03
2023-07-12T11:04:39.566Z,2.60
2023-07-12T11:07:34.859Z,2.83
2023-07-12T11:10:19.171Z,2.72
2023-07-12T11:12:54.792Z,2.95
2023-07-12T11:15:26.427Z,3.08
2023-07-12T11:18:02.300Z,2.97
2023-07-12T11:20:35.725Z,2.60
2023-07-12T11:23:28.905Z,2.67
2023-07-12T11:26:02.620Z,2.90
2023-07-12T11:28:42.096Z,2.80
2023-07-12T11:31:30.865Z,2.83
2023-07-12T11:34:07.542Z,3.38
2023-07-12T11:36:38.157Z,2.67
2023-07-12T11:39:15.648Z,2.95
2023-07-12T11:41:53.967Z,2.60
2023-07-12T11:44:21.930Z,2.78
2023-07-12T11:46:51.914Z,2.65
2023-07-12T11:49:23.781Z,3.03
2023-07-12T11:51:56.192Z,2.72
2023-07-12T11:54:26.108Z,2.67
2023-07-12T11:56:55.063Z,2.38
2023-07-12T11:59:25.089Z,3.22
2023-07-12T12:01:55.052Z,3.17
2023-07-12T12:04:25.012Z,2.90
2023-07-12T12:06:58.108Z,2.60
2023-07-12T12:09:29.546Z,2.55
2023-07-12T12:11:57.632Z,2.53
2023-07-12T12:14:28.514Z,2.30
2023-07-12T12:16:58.219Z,2.42
2023-07-12T12:19:30.568Z,2.90
2023-07-12T12:22:10.314Z,2.58
2023-07-12T12:24:46.958Z,2.72
2023-07-12T12:27:21.216Z,2.65
2023-07-12T12:29:50.081Z,2.40
2023-07-12T12:32:20.671Z,3.47
2023-07-12T12:34:53.293Z,2.92
2023-07-12T12:37:27.218Z,2.95
2023-07-12T12:40:00.325Z,2.60
2023-07-12T12:42:30.053Z,2.42
2023-07-12T12:44:58.172Z,3.08
2023-07-12T12:47:30.165Z,3.00
2023-07-12T12:53:13.777Z,2.70
2023-07-12T12:58:15.440Z,3.20
2023-07-12T13:05:50.196Z,2.45
2023-07-12T13:19:00.338Z,2.22
2023-07-12T13:21:25.532Z,2.92
2023-07-12T13:23:56.049Z,2.80
2023-07-12T13:26:25.800Z,2.45
2023-07-12T13:28:54.271Z,2.78
2023-07-12T13:31:24.484Z,2.58
2023-07-12T13:36:30.294Z,2.63
2023-07-12T13:46:48.357Z,2.92
2023-07-12T13:49:19.540Z,2.65
2023-07-12T13:51:49.176Z,2.17
2023-07-12T13:54:21.127Z,2.22
2023-07-12T13:56:49.080Z,2.80
2023-07-12T13:59:18.964Z,2.35
2023-07-12T14:04:37.949Z,2.25
2023-07-12T14:10:15.346Z,2.28
2023-07-12T14:12:45.041Z,2.25
2023-07-12T14:15:18.626Z,2.50
2023-07-12T14:17:46.878Z,2.55
2023-07-12T14:20:15.501Z,2.60
2023-07-12T14:22:45.747Z,2.40
2023-07-12T14:27:46.402Z,2.70
2023-07-12T14:32:49.406Z,2.60
2023-07-12T14:37:48.352Z,2.47
2023-07-12T14:40:18.952Z,2.50
2023-07-12T14:42:46.876Z,2.72
2023-07-12T14:45:17.240Z,2.08
2023-07-12T14:47:45.570Z,2.55
2023-07-12T14:50:15.606Z,2.33
2023-07-12T14:52:44.557Z,2.60
2023-07-12T14:55:14.671Z,2.38
2023-07-12T15:00:20.154Z,2.80
2023-07-12T15:02:52.786Z,2.25
2023-07-12T15:05:21.205Z,2.25
2023-07-12T15:07:49.531Z,2.67
2023-07-12T15:10:19.206Z,2.38
2023-07-12T15:12:51.306Z,2.67
2023-07-12T15:15:22.451Z,2.13
2023-07-12T15:17:57.384Z,2.70
2023-07-12T15:20:25.893Z,2.20
2023-07-12T15:22:54.596Z,2.20
2023-07-12T15:25:25.077Z,2.40
2023-07-12T15:30:24.593Z,2.17
2023-07-12T15:32:53.078Z,2.30
2023-07-12T15:35:24.925Z,2.13
2023-07-12T15:37:54.048Z,2.35
2023-07-12T15:40:22.652Z,2.00
2023-07-12T15:42:52.335Z,2.63
2023-07-12T15:45:21.750Z,2.65
2023-07-12T15:47:51.016Z,2.25
2023-07-12T15:50:19.182Z,2.22
2023-07-12T15:52:47.143Z,2.28
2023-07-12T15:55:18.616Z,2.20
2023-07-12T15:57:47.001Z,2.33
2023-07-12T16:00:20.474Z,2.33
2023-07-12T16:02:49.968Z,2.55
2023-07-12T16:05:19.370Z,2.40
2023-07-12T16:07:47.472Z,2.45
2023-07-12T16:10:16.759Z,2.15
2023-07-12T16:12:44.739Z,2.10
2023-07-12T16:15:19.088Z,2.30
2023-07-12T16:17:47.267Z,1.90
2023-07-12T16:20:17.011Z,2.95
2023-07-12T16:22:44.979Z,2.30
2023-07-12T16:25:19.864Z,2.30
2023-07-12T16:27:48.801Z,2.20
2023-07-12T16:30:19.711Z,2.05
2023-07-12T16:32:48.571Z,1.90
2023-07-12T16:35:20.241Z,2.00
2023-07-12T16:37:50.162Z,1.88
2023-07-12T16:40:18.293Z,2.40
2023-07-12T16:42:46.695Z,2.03
2023-07-12T16:45:27.904Z,1.65
2023-07-12T16:47:56.025Z,2.30
2023-07-12T16:50:25.568Z,2.10
2023-07-12T16:52:53.650Z,2.00
2023-07-12T16:55:23.382Z,2.20
2023-07-12T16:57:51.490Z,2.13
2023-07-12T17:00:19.957Z,2.25
2023-07-12T17:02:48.005Z,2.42
2023-07-12T17:05:19.537Z,2.35
2023-07-12T17:07:48.897Z,2.40
2023-07-12T17:10:17.029Z,2.47
2023-07-12T17:12:44.930Z,2.28
2023-07-12T17:15:14.036Z,2.28
2023-07-12T17:17:42.065Z,2.80
2023-07-12T17:20:10.900Z,2.10
2023-07-12T17:22:39.533Z,2.40
2023-07-12T17:25:12.382Z,2.20
2023-07-12T17:27:40.360Z,2.45
2023-07-12T17:30:13.338Z,2.40
2023-07-12T17:32:42.653Z,2.50
2023-07-12T17:35:12.413Z,2.90
2023-07-12T17:37:40.948Z,2.67
2023-07-12T17:40:14.777Z,2.40
2023-07-12T17:42:42.715Z,2.40
2023-07-12T17:45:20.157Z,2.55
2023-07-12T17:47:48.404Z,2.85
2023-07-12T17:50:16.533Z,2.88
2023-07-12T17:52:46.282Z,2.55
2023-07-12T17:55:18.619Z,2.55
2023-07-12T17:57:46.564Z,2.60
2023-07-12T18:00:16.730Z,2.80
2023-07-12T18:02:44.915Z,2.55
2023-07-12T18:05:31.191Z,2.30
2023-07-12T18:08:00.772Z,2.53
2023-07-12T18:10:30.198Z,3.00
2023-07-12T18:13:00.098Z,3.33
2023-07-12T18:15:29.080Z,2.38
2023-07-12T18:17:57.032Z,3.20
2023-07-12T18:20:25.654Z,2.90
2023-07-12T18:22:53.633Z,3.15
2023-07-12T18:25:21.632Z,3.25
2023-07-12T18:27:50.911Z,2.63
2023-07-12T18:30:18.897Z,2.83
2023-07-12T18:32:46.993Z,2.85
2023-07-12T18:35:28.385Z,2.92
2023-07-12T18:37:56.801Z,2.50
2023-07-12T18:40:27.341Z,3.08
2023-07-12T18:42:56.705Z,2.70
2023-07-12T18:45:28.618Z,3.00
2023-07-12T18:47:56.636Z,3.10
2023-07-12T18:50:26.515Z,2.95
2023-07-12T18:52:56.198Z,2.70
2023-07-12T18:55:24.246Z,3.03
2023-07-12T18:57:53.460Z,3.15
2023-07-12T19:00:23.423Z,2.67
2023-07-12T19:02:51.638Z,2.95
2023-07-12T19:05:25.592Z,3.03
2023-07-12T19:07:53.924Z,3.10
2023-07-12T19:10:23.547Z,2.97
2023-07-12T19:12:52.531Z,2.87
2023-07-12T19:15:24.783Z,3.08
2023-07-12T19:17:53.214Z,2.78
2023-07-12T19:20:21.254Z,2.92
2023-07-12T19:22:50.181Z,3.00
2023-07-12T19:25:21.280Z,2.95
2023-07-12T19:27:50.089Z,2.72
2023-07-12T19:30:20.029Z,2.90
2023-07-12T19:32:50.107Z,2.90
2023-07-12T19:35:22.171Z,2.92
2023-07-12T19:37:50.431Z,2.78
2023-07-12T19:40:19.426Z,2.78
2023-07-12T19:42:49.046Z,2.65
2023-07-12T19:45:20.038Z,3.00
2023-07-12T19:47:49.372Z,2.75
2023-07-12T19:50:19.328Z,2.78
2023-07-12T19:52:47.673Z,3.00
2023-07-12T19:55:22.806Z,2.63
2023-07-12T19:57:53.451Z,2.72
2023-07-12T20:00:21.973Z,1.98
2023-07-12T20:02:51.350Z,2.72
2023-07-12T20:05:19.346Z,3.35
2023-07-12T20:07:48.368Z,2.30
2023-07-12T20:10:16.681Z,3.03
2023-07-12T20:12:44.675Z,2.50
2023-07-12T20:15:14.293Z,2.50
2023-07-12T20:17:42.465Z,2.10
2023-07-12T20:20:15.948Z,2.50
2023-07-12T20:22:44.164Z,2.65
2023-07-12T20:25:13.146Z,2.53
2023-07-12T20:27:41.247Z,2.83
2023-07-12T20:30:11.006Z,3.13
2023-07-12T20:32:39.207Z,3.25
2023-07-12T20:35:07.817Z,2.60
2023-07-12T20:37:37.044Z,3.00
2023-07-12T20:40:07.304Z,2.67
2023-07-12T20:42:37.528Z,3.20
2023-07-12T20:45:09.724Z,2.80
2023-07-12T20:47:38.983Z,2.60
2023-07-12T20:50:07.636Z,2.30
2023-07-12T20:52:36.917Z,2.78
2023-07-12T20:55:05.891Z,3.28
2023-07-12T20:57:34.081Z,3.05
2023-07-12T21:00:03.961Z,3.00
2023-07-12T21:02:32.942Z,3.40
2023-07-12T21:05:01.034Z,2.83
2023-07-12T21:07:29.093Z,2.95
2023-07-12T21:09:58.419Z,3.30
2023-07-12T21:12:27.542Z,3.15
2023-07-12T21:14:59.262Z,3.13
2023-07-12T21:17:27.420Z,3.10
2023-07-12T21:19:56.421Z,3.20
2023-07-12T21:22:24.698Z,2.70
2023-07-12T21:24:52.656Z,3.40
2023-07-12T21:27:23.027Z,2.85
2023-07-12T21:29:51.275Z,2.83
2023-07-12T21:32:19.671Z,3.50
2023-07-12T21:34:47.764Z,3.08
2023-07-12T21:37:15.864Z,3.08
2023-07-12T21:39:44.235Z,3.40
2023-07-12T21:42:12.220Z,3.67
2023-07-12T21:44:41.753Z,3.67
2023-07-12T21:47:12.348Z,4.23
2023-07-12T21:49:40.342Z,3.75
2023-07-12T21:52:09.019Z,3.30
2023-07-12T21:54:37.126Z,3.55
2023-07-12T21:57:05.858Z,4.35
2023-07-12T21:59:34.391Z,4.55
2023-07-12T22:02:04.049Z,4.40
2023-07-12T22:04:31.979Z,4.13
2023-07-12T22:06:59.900Z,4.20
2023-07-12T22:09:27.855Z,5.00
2023-07-12T22:11:56.215Z,5.22
2023-07-12T22:14:24.079Z,4.70
2023-07-12T22:16:51.976Z,4.70
2023-07-12T22:19:21.461Z,4.55
2023-07-12T22:22:04.683Z,5.28
2023-07-12T22:24:32.867Z,4.78
2023-07-12T22:27:00.806Z,5.40
2023-07-12T22:29:28.845Z,5.82
2023-07-12T22:31:56.780Z,5.93
2023-07-12T22:34:26.106Z,5.38
2023-07-12T22:36:55.115Z,5.63
2023-07-12T22:39:23.119Z,5.97
2023-07-12T22:41:51.824Z,5.30
2023-07-12T22:44:21.181Z,4.82
2023-07-12T22:46:49.326Z,5.60
2023-07-12T22:49:18.801Z,5.72
2023-07-12T22:51:48.417Z,5.18
2023-07-12T22:54:16.385Z,5.23
2023-07-12T22:56:48.745Z,5.95
2023-07-12T22:59:17.474Z,5.05
2023-07-12T23:01:45.849Z,5.43
2023-07-12T23:04:13.944Z,5.10
2023-07-12T23:06:41.898Z,4.07
2023-07-12T23:09:12.175Z,5.10
2023-07-12T23:11:40.315Z,4.63
2023-07-12T23:14:09.685Z,5.20
2023-07-12T23:16:37.631Z,4.63
2023-07-12T23:19:05.811Z,4.93
2023-07-12T23:21:34.635Z,4.68
2023-07-12T23:24:02.567Z,4.30
2023-07-12T23:26:33.938Z,3.80
2023-07-12T23:29:03.955Z,4.00
2023-07-12T23:31:34.480Z,4.30
2023-07-12T23:34:04.140Z,4.40
2023-07-12T23:36:33.165Z,4.70
2023-07-12T23:39:06.825Z,4.07
2023-07-12T23:41:36.217Z,3.80
2023-07-12T23:44:04.159Z,5.25
2023-07-12T23:46:32.725Z,4.72
2023-07-12T23:49:00.925Z,4.85
2023-07-12T23:51:28.947Z,4.05
2023-07-12T23:53:56.940Z,4.10
2023-07-12T23:56:24.902Z,4.32
2023-07-12T23:58:54.369Z,4.13
